createdAt,value
2018-07-11T00:02:27.352Z,4.07
2018-07-11T00:04:55.474Z,4.20
2018-07-11T00:07:23.598Z,4.30
2018-07-11T00:09:51.704Z,4.67
2018-07-11T00:12:19.816Z,3.67
2018-07-11T00:14:47.912Z,3.50
2018-07-11T00:17:16.124Z,3.10
2018-07-11T00:19:44.501Z,3.57
2018-07-11T00:22:12.620Z,4.00
2018-07-11T00:24:40.748Z,4.60
2018-07-11T00:27:08.828Z,4.43
2018-07-11T00:29:36.822Z,4.57
2018-07-11T00:32:05.018Z,4.10
2018-07-11T00:34:33.163Z,4.00
2018-07-11T00:37:01.300Z,4.60
2018-07-11T00:39:29.677Z,3.60
2018-07-11T00:41:58.613Z,4.70
2018-07-11T00:44:27.735Z,4.60
2018-07-11T00:46:56.164Z,4.40
2018-07-11T00:49:24.319Z,5.70
2018-07-11T00:51:52.545Z,4.23
2018-07-11T00:54:20.638Z,3.90
2018-07-11T00:56:48.788Z,3.80
2018-07-11T00:59:23.231Z,3.50
2018-07-11T01:01:51.333Z,4.03
2018-07-11T01:04:19.476Z,4.50
2018-07-11T01:06:47.634Z,4.43
2018-07-11T01:09:16.133Z,4.00
2018-07-11T01:11:45.256Z,4.50
2018-07-11T01:14:13.835Z,3.93
2018-07-11T01:16:41.962Z,4.70
2018-07-11T01:19:10.973Z,4.70
2018-07-11T01:21:39.429Z,5.00
2018-07-11T01:24:07.629Z,4.40
2018-07-11T01:26:36.803Z,4.73
2018-07-11T01:29:05.085Z,5.23
2018-07-11T01:31:33.194Z,5.20
2018-07-11T01:34:01.396Z,4.57
2018-07-11T01:36:30.127Z,4.10
2018-07-11T01:38:59.116Z,4.37
2018-07-11T01:41:27.227Z,4.50
2018-07-11T01:43:55.348Z,4.20
2018-07-11T01:46:23.475Z,4.50
2018-07-11T01:48:51.595Z,4.27
2018-07-11T01:51:20.139Z,5.67
2018-07-11T01:53:48.279Z,5.30
2018-07-11T01:56:16.166Z,6.57
2018-07-11T01:58:46.055Z,6.23
2018-07-11T02:01:15.410Z,5.33
2018-07-11T02:03:43.511Z,6.93
2018-07-11T02:06:11.644Z,6.20
2018-07-11T02:08:39.760Z,5.80
2018-07-11T02:11:07.869Z,6.33
2018-07-11T02:13:36.005Z,7.30
2018-07-11T02:16:04.129Z,6.33
2018-07-11T02:18:32.248Z,6.50
2018-07-11T02:21:00.358Z,7.10
2018-07-11T02:23:34.620Z,6.80
2018-07-11T02:26:02.718Z,8.20
2018-07-11T02:28:30.928Z,6.90
2018-07-11T02:30:59.056Z,6.30
2018-07-11T02:33:27.182Z,7.23
2018-07-11T02:35:55.296Z,6.80
2018-07-11T02:38:23.432Z,7.47
2018-07-11T02:40:51.540Z,6.67
2018-07-11T02:43:19.739Z,8.10
2018-07-11T02:45:47.853Z,7.70
2018-07-11T02:48:15.977Z,7.83
2018-07-11T02:50:44.075Z,8.23
2018-07-11T02:53:17.397Z,7.03
2018-07-11T02:55:45.517Z,7.60
2018-07-11T02:58:13.624Z,6.73
2018-07-11T03:00:41.742Z,7.43
2018-07-11T03:03:09.848Z,7.37
2018-07-11T03:05:37.955Z,7.63
2018-07-11T03:08:06.098Z,7.87
2018-07-11T03:10:34.203Z,8.93
2018-07-11T03:13:02.328Z,9.53
2018-07-11T03:15:30.455Z,10.33
2018-07-11T03:17:58.593Z,11.00
2018-07-11T03:20:26.696Z,14.13
2018-07-11T03:22:54.833Z,12.87
2018-07-11T03:25:22.951Z,14.37
2018-07-11T03:27:51.062Z,14.90
2018-07-11T03:30:19.195Z,14.93
2018-07-11T03:32:47.366Z,18.00
2018-07-11T03:35:15.545Z,16.63
2018-07-11T03:37:43.655Z,15.10
2018-07-11T03:40:11.813Z,15.10
2018-07-11T03:42:39.919Z,13.90
2018-07-11T03:45:08.037Z,13.40
2018-07-11T03:47:36.172Z,13.40
2018-07-11T03:50:04.382Z,12.23
2018-07-11T03:52:32.503Z,10.73
2018-07-11T03:55:00.629Z,10.70
2018-07-11T03:57:28.764Z,10.50
2018-07-11T03:59:56.864Z,13.97
2018-07-11T04:02:24.975Z,15.07
2018-07-11T04:04:53.107Z,14.60
2018-07-11T04:07:21.199Z,15.23
2018-07-11T04:09:49.071Z,13.97
2018-07-11T04:12:17.200Z,13.40
2018-07-11T04:14:45.324Z,12.60
2018-07-11T04:17:13.461Z,15.67
2018-07-11T04:19:41.607Z,18.10
2018-07-11T04:22:09.779Z,19.73
2018-07-11T04:24:37.884Z,19.83
2018-07-11T04:27:06.026Z,18.57
2018-07-11T04:29:34.173Z,17.70
2018-07-11T04:32:02.379Z,17.33
2018-07-11T04:34:30.531Z,18.50
2018-07-11T04:36:58.615Z,17.53
2018-07-11T04:39:26.842Z,18.17
2018-07-11T04:41:54.968Z,16.30
2018-07-11T04:44:23.140Z,16.07
2018-07-11T04:46:51.258Z,16.20
2018-07-11T04:49:19.366Z,17.23
2018-07-11T04:51:47.735Z,16.10
2018-07-11T04:54:15.856Z,16.40
2018-07-11T04:56:43.966Z,16.57
2018-07-11T04:59:12.083Z,15.97
2018-07-11T05:01:40.183Z,15.17
2018-07-11T05:04:08.306Z,16.00
2018-07-11T05:06:36.488Z,16.23
2018-07-11T05:09:05.128Z,18.07
2018-07-11T05:11:33.255Z,18.60
2018-07-11T05:14:01.388Z,20.47
2018-07-11T05:16:29.516Z,18.50
2018-07-11T05:18:57.627Z,19.47
2018-07-11T05:21:25.739Z,21.70
2018-07-11T05:23:53.861Z,21.87
2018-07-11T05:26:21.965Z,25.70
2018-07-11T05:28:50.121Z,25.83
2018-07-11T05:31:18.241Z,24.90
2018-07-11T05:33:46.365Z,26.67
2018-07-11T05:36:14.522Z,26.63
2018-07-11T05:38:42.583Z,24.70
2018-07-11T05:41:10.741Z,24.87
2018-07-11T05:43:38.864Z,25.00
2018-07-11T05:46:06.996Z,26.60
2018-07-11T05:48:35.100Z,26.00
2018-07-11T05:51:03.228Z,24.50
2018-07-11T05:53:31.385Z,23.10
2018-07-11T05:55:59.482Z,24.60
2018-07-11T05:58:27.602Z,22.27
2018-07-11T06:00:55.720Z,23.43
2018-07-11T06:03:23.830Z,24.10
2018-07-11T06:05:51.932Z,22.37
2018-07-11T06:08:20.033Z,23.97
2018-07-11T06:10:47.927Z,22.03
2018-07-11T06:13:16.088Z,24.73
2018-07-11T06:15:44.214Z,23.40
2018-07-11T06:18:12.385Z,24.67
2018-07-11T06:20:40.507Z,26.60
2018-07-11T06:23:08.629Z,26.50
2018-07-11T06:25:36.781Z,26.10
2018-07-11T06:28:04.920Z,27.00
2018-07-11T06:30:33.069Z,28.43
2018-07-11T06:33:01.184Z,26.40
2018-07-11T06:35:29.319Z,29.00
2018-07-11T06:37:57.520Z,27.87
2018-07-11T06:40:25.604Z,30.20
2018-07-11T06:42:54.617Z,30.60
2018-07-11T06:45:22.741Z,28.67
2018-07-11T06:47:50.890Z,30.87
2018-07-11T06:51:22.523Z,31.23
2018-07-11T06:53:50.634Z,30.30
2018-07-11T06:56:18.742Z,30.97
2018-07-11T06:58:46.848Z,33.57
2018-07-11T07:01:14.971Z,29.80
2018-07-11T07:03:43.071Z,32.20
2018-07-11T07:06:11.182Z,32.17
2018-07-11T07:08:39.278Z,29.10
2018-07-11T07:11:07.415Z,33.47
2018-07-11T07:13:35.558Z,33.50
2018-07-11T07:16:03.663Z,32.43
2018-07-11T07:18:31.773Z,31.07
2018-07-11T07:20:59.918Z,30.73
2018-07-11T07:23:28.026Z,32.33
2018-07-11T07:25:56.292Z,30.20
2018-07-11T07:28:24.398Z,31.60
2018-07-11T07:30:52.529Z,33.10
2018-07-11T07:33:20.640Z,32.20
2018-07-11T07:35:48.792Z,31.70
2018-07-11T07:38:16.927Z,30.10
2018-07-11T07:40:45.044Z,32.40
2018-07-11T07:43:13.151Z,31.10
2018-07-11T07:45:42.000Z,30.67
2018-07-11T07:48:10.120Z,34.20
2018-07-11T07:50:38.231Z,32.70
2018-07-11T07:53:06.375Z,31.37
2018-07-11T07:55:34.497Z,28.17
2018-07-11T07:58:02.625Z,29.23
2018-07-11T08:00:30.779Z,29.60
2018-07-11T08:02:59.414Z,30.33
2018-07-11T08:05:27.527Z,29.10
2018-07-11T08:07:55.647Z,28.53
2018-07-11T08:10:23.772Z,29.40
2018-07-11T08:12:51.904Z,27.10
2018-07-11T08:15:20.027Z,25.10
2018-07-11T08:17:48.140Z,24.57
2018-07-11T08:20:16.267Z,23.30
2018-07-11T08:23:22.564Z,21.10
2018-07-11T08:26:03.134Z,22.37
2018-07-11T08:29:44.994Z,22.10
2018-07-11T08:32:22.123Z,20.27
2018-07-11T08:37:15.221Z,20.63
2018-07-11T08:40:22.767Z,17.17
2018-07-11T08:43:03.811Z,18.80
2018-07-11T08:49:56.238Z,16.40
2018-07-11T08:52:43.459Z,14.40
2018-07-11T08:55:51.646Z,13.90
2018-07-11T09:00:34.812Z,13.13
2018-07-11T09:03:18.145Z,11.77
2018-07-11T09:07:03.680Z,12.87
2018-07-11T09:09:41.478Z,13.90
2018-07-11T09:12:21.073Z,11.27
2018-07-11T09:15:30.616Z,12.53
2018-07-11T09:18:12.114Z,10.90
2018-07-11T09:20:55.336Z,6.73
2018-07-11T09:25:36.191Z,6.77
2018-07-11T09:28:04.363Z,6.13
2018-07-11T09:30:32.525Z,6.07
2018-07-11T09:33:00.588Z,7.60
2018-07-11T09:35:28.722Z,6.13
2018-07-11T09:37:56.848Z,6.70
2018-07-11T09:40:24.943Z,7.03
2018-07-11T09:42:53.066Z,6.57
2018-07-11T09:45:21.824Z,6.43
2018-07-11T09:47:49.853Z,6.00
2018-07-11T09:50:17.987Z,6.00
2018-07-11T09:52:46.097Z,6.83
2018-07-11T09:55:14.228Z,5.27
2018-07-11T09:57:42.340Z,7.00
2018-07-11T10:00:16.008Z,5.90
2018-07-11T10:02:44.157Z,6.13
2018-07-11T10:05:12.321Z,5.53
2018-07-11T10:07:40.380Z,6.07
2018-07-11T10:10:08.534Z,5.40
2018-07-11T10:12:36.706Z,5.93
2018-07-11T10:15:04.842Z,5.70
2018-07-11T10:17:32.966Z,5.20
2018-07-11T10:20:01.069Z,5.90
2018-07-11T10:22:29.171Z,5.47
2018-07-11T10:24:57.283Z,5.00
2018-07-11T10:27:25.416Z,5.30
2018-07-11T10:29:53.519Z,5.00
2018-07-11T10:32:21.628Z,5.00
2018-07-11T10:34:49.755Z,5.00
2018-07-11T10:37:17.907Z,5.17
2018-07-11T10:39:46.032Z,4.50
2018-07-11T10:42:14.137Z,5.60
2018-07-11T10:44:42.253Z,5.10
2018-07-11T10:47:12.459Z,5.97
2018-07-11T10:49:41.460Z,5.07
2018-07-11T10:52:09.741Z,5.20
2018-07-11T10:54:38.425Z,4.57
2018-07-11T10:57:06.533Z,3.57
2018-07-11T10:59:34.637Z,3.73
2018-07-11T11:02:02.740Z,3.93
2018-07-11T11:04:30.876Z,4.20
2018-07-11T11:06:58.987Z,5.30
2018-07-11T11:09:27.095Z,4.63
2018-07-11T11:11:55.228Z,4.07
2018-07-11T11:14:23.362Z,3.00
2018-07-11T11:16:51.514Z,3.23
2018-07-11T11:19:19.688Z,4.67
2018-07-11T11:21:47.863Z,3.73
2018-07-11T11:24:16.406Z,3.00
2018-07-11T11:26:44.537Z,3.07
2018-07-11T11:29:12.663Z,3.03
2018-07-11T11:31:40.796Z,3.20
2018-07-11T11:34:09.001Z,3.50
2018-07-11T11:36:37.138Z,3.93
2018-07-11T11:39:05.321Z,3.50
2018-07-11T11:41:33.553Z,4.77
2018-07-11T11:44:02.339Z,6.40
2018-07-11T11:46:30.447Z,3.33
2018-07-11T11:48:58.608Z,3.70
2018-07-11T11:51:26.732Z,3.47
2018-07-11T11:53:54.906Z,3.17
2018-07-11T11:56:23.050Z,2.87
2018-07-11T11:58:51.148Z,3.33
2018-07-11T12:01:19.257Z,3.10
2018-07-11T12:03:47.376Z,2.60
2018-07-11T12:06:15.516Z,3.17
2018-07-11T12:08:43.617Z,3.20
2018-07-11T12:11:11.740Z,3.73
2018-07-11T12:13:39.864Z,3.97
2018-07-11T12:16:07.984Z,3.97
2018-07-11T12:18:36.158Z,4.03
2018-07-11T12:21:04.333Z,3.83
2018-07-11T12:23:32.435Z,4.30
2018-07-11T12:26:07.108Z,3.30
2018-07-11T12:28:35.304Z,4.40
2018-07-11T12:31:03.668Z,3.50
2018-07-11T12:33:31.862Z,3.70
2018-07-11T12:35:59.924Z,4.30
2018-07-11T12:38:28.179Z,3.10
2018-07-11T12:40:56.309Z,3.00
2018-07-11T12:43:24.727Z,2.27
2018-07-11T12:45:52.824Z,2.70
2018-07-11T12:48:26.363Z,2.57
2018-07-11T12:50:54.718Z,2.80
2018-07-11T12:53:22.828Z,2.70
2018-07-11T12:55:50.950Z,2.90
2018-07-11T12:58:19.504Z,2.00
2018-07-11T13:00:47.864Z,2.80
2018-07-11T13:03:16.234Z,2.60
2018-07-11T13:05:44.723Z,2.50
2018-07-11T13:08:12.656Z,2.00
2018-07-11T13:10:40.813Z,1.97
2018-07-11T13:13:08.953Z,2.00
2018-07-11T13:15:37.080Z,2.03
2018-07-11T13:18:05.205Z,2.30
2018-07-11T13:20:33.340Z,1.70
2018-07-11T13:23:01.456Z,2.00
2018-07-11T13:25:29.615Z,1.70
2018-07-11T13:27:57.713Z,2.00
2018-07-11T13:30:25.823Z,2.33
2018-07-11T13:32:53.961Z,2.90
2018-07-11T13:35:22.070Z,2.23
2018-07-11T13:37:50.193Z,2.27
2018-07-11T13:40:18.330Z,1.97
2018-07-11T13:42:46.429Z,1.80
2018-07-11T13:45:14.544Z,2.00
2018-07-11T13:47:42.706Z,1.80
2018-07-11T13:50:10.845Z,2.20
2018-07-11T13:52:38.987Z,2.00
2018-07-11T13:55:07.173Z,1.90
2018-07-11T13:57:35.241Z,2.03
2018-07-11T14:00:03.384Z,2.10
2018-07-11T14:02:31.512Z,2.10
2018-07-11T14:04:59.687Z,2.37
2018-07-11T14:07:27.808Z,2.40
2018-07-11T14:09:55.958Z,1.90
2018-07-11T14:12:24.065Z,2.10
2018-07-11T14:14:52.211Z,1.90
2018-07-11T14:17:20.329Z,2.20
2018-07-11T14:19:48.459Z,2.07
2018-07-11T14:22:16.579Z,2.00
2018-07-11T14:24:45.267Z,2.20
2018-07-11T14:27:14.488Z,1.87
2018-07-11T14:29:42.603Z,2.10
2018-07-11T14:32:10.714Z,1.60
2018-07-11T14:34:38.857Z,1.77
2018-07-11T14:37:06.966Z,2.03
2018-07-11T14:39:35.089Z,2.37
2018-07-11T14:42:03.209Z,2.30
2018-07-11T14:44:31.332Z,2.70
2018-07-11T14:46:59.537Z,2.37
2018-07-11T14:49:27.646Z,3.00
2018-07-11T14:51:55.755Z,2.50
2018-07-11T14:54:23.880Z,2.77
2018-07-11T14:56:52.060Z,2.43
2018-07-11T14:59:21.004Z,2.10
2018-07-11T15:01:49.120Z,2.63
2018-07-11T15:04:17.230Z,3.13
2018-07-11T15:06:45.351Z,2.10
2018-07-11T15:09:13.738Z,2.90
2018-07-11T15:11:41.565Z,2.30
2018-07-11T15:14:09.692Z,2.63
2018-07-11T15:16:37.791Z,2.47
2018-07-11T15:19:05.937Z,3.10
2018-07-11T15:21:34.044Z,2.50
2018-07-11T15:24:02.205Z,2.80
2018-07-11T15:26:30.319Z,2.13
2018-07-11T15:28:58.447Z,2.30
2018-07-11T15:31:26.644Z,2.50
2018-07-11T15:33:54.847Z,2.80
2018-07-11T15:36:22.983Z,2.20
2018-07-11T15:38:51.079Z,2.23
2018-07-11T15:41:19.209Z,2.50
2018-07-11T15:43:47.318Z,2.53
2018-07-11T15:46:15.454Z,2.40
2018-07-11T15:48:43.914Z,3.20
2018-07-11T15:51:12.232Z,2.43
2018-07-11T15:53:40.241Z,2.43
2018-07-11T15:56:08.106Z,1.93
2018-07-11T15:58:37.200Z,1.93
2018-07-11T16:01:07.377Z,2.47
2018-07-11T16:03:39.119Z,2.60
2018-07-11T16:06:07.766Z,2.77
2018-07-11T16:08:35.892Z,2.60
2018-07-11T16:11:04.915Z,2.90
2018-07-11T16:13:33.220Z,2.63
2018-07-11T16:16:01.312Z,2.33
2018-07-11T16:18:29.477Z,2.27
2018-07-11T16:20:57.536Z,2.00
2018-07-11T16:23:25.658Z,1.60
2018-07-11T16:25:53.762Z,1.60
2018-07-11T16:28:21.871Z,1.57
2018-07-11T16:30:50.039Z,1.80
2018-07-11T16:33:17.946Z,1.63
2018-07-11T16:35:46.060Z,1.67
2018-07-11T16:38:14.192Z,1.63
2018-07-11T16:40:42.296Z,1.83
2018-07-11T16:43:10.404Z,1.40
2018-07-11T16:45:38.532Z,1.50
2018-07-11T16:48:06.692Z,1.50
2018-07-11T16:50:35.537Z,1.30
2018-07-11T16:53:03.689Z,1.47
2018-07-11T16:55:33.009Z,1.53
2018-07-11T16:58:01.132Z,1.50
2018-07-11T17:00:31.612Z,1.50
2018-07-11T17:03:06.643Z,1.23
2018-07-11T17:05:50.163Z,1.47
2018-07-11T17:08:27.220Z,1.33
2018-07-11T17:10:56.924Z,1.40
2018-07-11T17:13:25.067Z,1.40
2018-07-11T17:15:53.649Z,1.73
2018-07-11T17:19:36.129Z,1.73
2018-07-11T17:22:04.409Z,1.73
2018-07-11T17:24:35.318Z,2.00
2018-07-11T17:27:03.432Z,2.17
2018-07-11T17:29:31.539Z,2.03
2018-07-11T17:32:08.572Z,1.70
2018-07-11T17:34:37.508Z,1.67
2018-07-11T17:37:06.902Z,1.60
2018-07-11T17:39:43.776Z,1.50
2018-07-11T17:42:11.918Z,1.83
2018-07-11T17:44:43.551Z,2.20
2018-07-11T17:47:12.174Z,2.60
2018-07-11T17:49:46.628Z,2.17
2018-07-11T17:52:14.747Z,1.83
2018-07-11T17:55:11.120Z,1.97
2018-07-11T17:58:13.296Z,2.20
2018-07-11T18:00:45.360Z,2.00
2018-07-11T18:03:20.369Z,2.10
2018-07-11T18:05:51.328Z,1.80
2018-07-11T18:08:19.453Z,2.07
2018-07-11T18:10:51.437Z,2.40
2018-07-11T18:13:26.905Z,2.50
2018-07-11T18:17:08.175Z,2.60
2018-07-11T18:19:45.139Z,2.27
2018-07-11T18:22:25.541Z,2.27
2018-07-11T18:25:06.370Z,2.87
2018-07-11T18:27:41.609Z,2.87
2018-07-11T18:34:30.155Z,3.50
2018-07-11T18:37:10.265Z,3.80
2018-07-11T18:39:48.708Z,4.13
2018-07-11T18:42:55.323Z,4.03
2018-07-11T18:45:38.629Z,3.97
2018-07-11T18:48:18.263Z,3.97
2018-07-11T18:50:57.884Z,3.43
2018-07-11T18:53:37.952Z,3.13
2018-07-11T18:57:13.532Z,3.57
2018-07-11T19:00:50.517Z,3.30
2018-07-11T19:03:31.497Z,3.10
2018-07-11T19:06:11.615Z,3.13
2018-07-11T19:08:47.809Z,4.00
2018-07-11T19:11:27.869Z,3.27
2018-07-11T19:14:04.438Z,3.40
2018-07-11T19:16:47.013Z,4.17
2018-07-11T19:19:20.499Z,4.40
2018-07-11T19:21:56.634Z,4.30
2018-07-11T19:24:36.727Z,4.03
2018-07-11T19:27:13.304Z,5.23
2018-07-11T19:30:14.895Z,4.63
2018-07-11T19:33:55.876Z,4.50
2018-07-11T19:36:35.382Z,4.70
2018-07-11T19:39:07.892Z,4.60
2018-07-11T19:42:16.136Z,4.20
2018-07-11T19:44:56.662Z,5.53
2018-07-11T19:48:33.758Z,6.70
2018-07-11T19:51:13.987Z,7.70
2018-07-11T19:54:03.844Z,8.07
2018-07-11T19:56:42.581Z,7.33
2018-07-11T19:59:10.684Z,6.07
2018-07-11T20:01:38.793Z,5.73
2018-07-11T20:04:06.921Z,6.20
2018-07-11T20:06:35.036Z,5.93
2018-07-11T20:09:04.118Z,6.40
2018-07-11T20:11:32.243Z,7.80
2018-07-11T20:14:00.460Z,7.07
2018-07-11T20:16:28.647Z,6.47
2018-07-11T20:18:56.754Z,6.80
2018-07-11T20:21:24.880Z,7.47
2018-07-11T20:23:52.991Z,6.50
2018-07-11T20:26:21.464Z,6.00
2018-07-11T20:28:49.591Z,6.83
2018-07-11T20:31:17.773Z,7.23
2018-07-11T20:33:45.873Z,5.33
2018-07-11T20:36:14.011Z,6.97
2018-07-11T20:38:42.481Z,5.83
2018-07-11T20:41:10.622Z,6.47
2018-07-11T20:43:39.157Z,6.67
2018-07-11T20:46:07.959Z,5.97
2018-07-11T20:48:36.522Z,5.60
2018-07-11T20:51:04.677Z,6.63
2018-07-11T20:53:32.806Z,5.73
2018-07-11T20:56:00.888Z,6.13
2018-07-11T20:58:40.423Z,5.73
2018-07-11T21:01:19.998Z,6.00
2018-07-11T21:06:04.348Z,6.00
2018-07-11T21:09:44.442Z,6.13
2018-07-11T21:12:53.526Z,7.70
2018-07-11T21:15:32.875Z,6.60
2018-07-11T21:19:08.332Z,7.43
2018-07-11T21:21:37.415Z,6.93
2018-07-11T21:24:06.830Z,6.27
2018-07-11T21:26:35.304Z,6.90
2018-07-11T21:29:03.472Z,6.77
2018-07-11T21:31:31.612Z,6.47
2018-07-11T21:33:59.744Z,5.90
2018-07-11T21:36:27.839Z,6.10
2018-07-11T21:38:55.963Z,6.50
2018-07-11T21:41:24.071Z,6.70
2018-07-11T21:43:52.420Z,6.10
2018-07-11T21:46:20.815Z,5.77
2018-07-11T21:48:48.925Z,6.27
2018-07-11T21:51:17.045Z,6.47
2018-07-11T21:53:45.148Z,5.83
2018-07-11T21:56:13.244Z,7.87
2018-07-11T21:58:41.359Z,7.43
2018-07-11T22:01:10.685Z,7.60
2018-07-11T22:03:38.830Z,6.03
2018-07-11T22:06:06.910Z,6.43
2018-07-11T22:08:35.292Z,5.70
2018-07-11T22:11:03.417Z,5.93
2018-07-11T22:13:31.523Z,7.10
2018-07-11T22:15:59.631Z,6.37
2018-07-11T22:18:33.487Z,7.10
2018-07-11T22:21:01.500Z,7.13
2018-07-11T22:23:28.797Z,7.17
2018-07-11T22:25:55.920Z,8.63
2018-07-11T22:28:23.123Z,7.40
2018-07-11T22:30:50.298Z,8.70
2018-07-11T22:33:17.508Z,6.70
2018-07-11T22:35:44.706Z,7.03
2018-07-11T22:38:12.383Z,7.60
2018-07-11T22:40:39.847Z,7.37
2018-07-11T22:43:07.304Z,7.50
2018-07-11T22:45:34.773Z,7.00
2018-07-11T22:48:01.979Z,6.90
2018-07-11T22:50:29.489Z,6.50
2018-07-11T22:52:56.776Z,6.67
2018-07-11T22:55:24.043Z,6.17
2018-07-11T22:57:51.534Z,6.20
2018-07-11T23:00:18.751Z,5.80
2018-07-11T23:02:45.919Z,6.13
2018-07-11T23:05:13.086Z,7.53
2018-07-11T23:07:40.251Z,5.90
2018-07-11T23:21:34.856Z,8.90
2018-07-11T23:24:02.047Z,9.10
2018-07-11T23:29:20.265Z,10.00
2018-07-11T23:31:47.704Z,9.37
2018-07-11T23:34:14.909Z,9.17
2018-07-11T23:36:42.129Z,8.97
2018-07-11T23:39:10.478Z,8.90
2018-07-11T23:41:37.668Z,8.60
2018-07-11T23:44:04.855Z,8.57
2018-07-11T23:46:32.043Z,10.03
2018-07-11T23:48:59.285Z,9.80
2018-07-11T23:51:26.480Z,8.50
2018-07-11T23:53:53.663Z,9.13
2018-07-11T23:56:20.856Z,8.80
2018-07-11T23:58:48.072Z,9.60
